Time;durP1;ratioP1;P1;durP2;ratioP2;P2;SDS_P1;SDS_P2;PMS_P1;PMS_P2;Temp;Humidity;BMP_temperature;BMP_pressure;BME280_temperature;BME280_humidity;BME280_pressure;Samples;Min_cycle;Max_cycle;Signal;HPM_P1;HPM_P2
2022/04/07 00:01:35;;;;;;;8.93;5.73;;;;;;;9.44;66.17;99133.91;1476022;86;22221;-83
2022/04/07 00:04:02;;;;;;;6.73;4.50;;;;;;;9.41;66.32;99131.61;1464837;88;21400;-82
2022/04/07 00:06:29;;;;;;;8.60;5.13;;;;;;;9.39;66.61;99128.31;1469056;88;21359;-82
2022/04/07 00:08:57;;;;;;;11.50;5.70;;;;;;;9.39;66.45;99114.30;1472045;88;22764;-82
2022/04/07 00:11:24;;;;;;;8.93;5.50;;;;;;;9.38;66.77;99111.30;1447680;89;21444;-82
2022/04/07 00:13:51;;;;;;;9.13;5.90;;;;;;;9.36;67.06;99104.08;1447635;89;22346;-81
2022/04/07 00:16:18;;;;;;;8.73;5.50;;;;;;;9.35;67.15;99105.90;1455111;89;21340;-82
2022/04/07 00:18:46;;;;;;;11.20;5.50;;;;;;;9.34;66.74;99097.62;1459918;89;21451;-82
2022/04/07 00:21:24;;;;;;;8.20;5.43;;;;;;;9.32;66.61;99090.41;1457597;88;21510;-82
2022/04/07 00:23:44;;;;;;;11.47;5.90;;;;;;;9.30;66.57;99092.38;1454646;88;21731;-81
2022/04/07 00:26:11;;;;;;;9.03;5.77;;;;;;;9.28;66.98;99081.16;1467209;88;21454;-82
2022/04/07 00:28:37;;;;;;;12.40;5.97;;;;;;;9.24;67.91;99089.11;1474597;86;21354;-81
2022/04/07 00:31:04;;;;;;;7.93;5.27;;;;;;;9.21;67.38;99073.62;1460767;89;21428;-82
2022/04/07 00:33:31;;;;;;;10.73;6.23;;;;;;;9.21;67.84;99072.30;1459303;88;21475;-82
2022/04/07 00:35:58;;;;;;;8.83;5.77;;;;;;;9.20;67.52;99065.35;1465226;88;21381;-82
2022/04/07 00:38:25;;;;;;;12.83;7.23;;;;;;;9.20;67.91;99064.03;1473925;87;21397;-82
2022/04/07 00:40:52;;;;;;;8.20;5.70;;;;;;;9.19;68.13;99063.72;1478121;88;21406;-81
2022/04/07 00:43:36;;;;;;;13.57;7.17;;;;;;;9.18;67.62;99058.13;1469471;88;21455;-82
2022/04/07 00:46:04;;;;;;;8.03;6.20;;;;;;;9.17;67.91;99055.14;1481601;88;22345;-82
2022/04/07 00:48:35;;;;;;;12.63;7.37;;;;;;;9.14;67.87;99048.89;1475803;88;21359;-82
2022/04/07 00:51:02;;;;;;;9.93;6.83;;;;;;;9.11;68.33;99043.95;1471618;88;21448;-82
2022/04/07 00:53:29;;;;;;;10.93;6.03;;;;;;;9.08;68.43;99036.38;1479718;88;22409;-82
2022/04/07 00:56:00;;;;;;;11.13;6.07;;;;;;;9.05;68.43;99036.22;1476219;88;21398;-81
2022/04/07 00:58:26;;;;;;;9.30;6.23;;;;;;;9.01;68.90;99037.07;1459286;89;21443;-84
2022/04/07 01:00:53;;;;;;;12.57;7.27;;;;;;;8.99;69.10;99039.05;1460719;89;22360;-84
2022/04/07 01:03:21;;;;;;;11.97;6.57;;;;;;;8.97;69.09;99038.89;1459739;89;21415;-83
2022/04/07 01:05:50;;;;;;;13.87;7.70;;;;;;;8.99;68.26;99040.87;1466889;89;21318;-83
2022/04/07 01:08:17;;;;;;;9.30;7.23;;;;;;;8.98;68.30;99028.68;1456806;89;21330;-84
2022/04/07 01:10:47;;;;;;;11.33;7.13;;;;;;;8.98;68.12;99028.17;1463475;89;21390;-83
2022/04/07 01:13:15;;;;;;;13.83;7.03;;;;;;;8.97;68.25;99031.79;1458578;88;21361;-83
2022/04/07 01:15:42;;;;;;;12.03;7.83;;;;;;;8.90;69.10;99024.25;1451470;89;21518;-82
2022/04/07 01:18:10;;;;;;;11.50;6.50;;;;;;;8.85;68.49;99026.57;1461999;89;22181;-83
2022/04/07 01:20:38;;;;;;;9.67;6.13;;;;;;;8.80;69.21;99024.94;1454859;89;21372;-82
2022/04/07 01:23:07;;;;;;;9.87;6.50;;;;;;;8.70;69.43;99022.50;1462145;88;21408;-82
2022/04/07 01:25:35;;;;;;;10.13;6.13;;;;;;;8.67;68.74;99022.02;1471356;88;21346;-82
2022/04/07 01:28:03;;;;;;;9.43;6.33;;;;;;;8.63;68.96;99016.28;1460800;88;21448;-80
2022/04/07 01:30:30;;;;;;;12.93;6.53;;;;;;;8.48;69.70;99014.80;1467227;88;21456;-81
2022/04/07 01:32:59;;;;;;;8.27;5.93;;;;;;;8.33;70.10;99011.19;1453595;88;21460;-82
2022/04/07 01:35:27;;;;;;;8.40;5.50;;;;;;;8.29;69.69;99005.94;1454610;89;23340;-82
2022/04/07 01:37:57;;;;;;;9.53;5.67;;;;;;;8.28;69.50;99005.59;1446760;88;22271;-82
2022/04/07 01:40:31;;;;;;;13.10;5.73;;;;;;;8.26;69.72;99004.96;1440748;89;21332;-85
2022/04/07 01:42:59;;;;;;;10.07;5.67;;;;;;;8.20;69.98;99000.33;1454377;89;21507;-83
2022/04/07 01:45:26;;;;;;;8.47;5.97;;;;;;;8.14;70.16;99002.66;1446251;88;21367;-82
2022/04/07 01:47:55;;;;;;;8.77;5.37;;;;;;;8.11;69.77;99001.69;1458594;89;21399;-82
2022/04/07 01:50:25;;;;;;;8.17;5.63;;;;;;;8.07;70.41;98997.72;1455941;89;21339;-82
2022/04/07 01:52:53;;;;;;;10.03;5.47;;;;;;;7.99;70.97;98996.41;1461599;89;21318;-82
2022/04/07 01:55:21;;;;;;;12.37;6.37;;;;;;;7.90;71.31;98994.77;1461119;87;21466;-82
2022/04/07 01:57:49;;;;;;;8.87;5.43;;;;;;;7.86;71.01;98989.02;1477765;88;21414;-81
2022/04/07 02:00:16;;;;;;;7.83;5.23;;;;;;;7.84;70.68;98988.34;1466646;89;22324;-81
2022/04/07 02:02:45;;;;;;;8.00;6.17;;;;;;;7.86;70.57;98989.02;1474685;87;23429;-80
2022/04/07 02:05:13;;;;;;;8.37;5.27;;;;;;;7.83;71.06;98981.94;1457261;87;21370;-81
2022/04/07 02:07:43;;;;;;;9.97;5.67;;;;;;;7.73;72.00;98981.27;1473251;88;21361;-80
2022/04/07 02:10:13;;;;;;;10.57;5.97;;;;;;;7.64;71.73;98984.39;1430250;90;22323;-80
2022/04/07 02:12:42;;;;;;;8.53;5.70;;;;;;;7.56;71.66;98978.63;1442506;90;21525;-83
2022/04/07 02:15:11;;;;;;;8.47;6.03;;;;;;;7.52;71.71;98978.63;1466977;87;21307;-81
2022/04/07 02:17:39;;;;;;;8.30;5.73;;;;;;;7.49;71.79;98961.84;1480487;87;21375;-82
2022/04/07 02:20:09;;;;;;;10.30;5.73;;;;;;;7.47;72.02;98969.08;1486195;87;21388;-81
2022/04/07 02:22:36;;;;;;;10.00;5.55;;;;;;;7.37;73.12;98968.42;1493117;86;21494;-81
2022/04/07 02:25:05;;;;;;;9.53;6.13;;;;;;;7.29;73.41;98967.09;1438656;88;21336;-81
2022/04/07 02:27:40;;;;;;;10.77;5.83;;;;;;;7.21;73.70;98960.00;1484132;87;21380;-81
2022/04/07 02:30:11;;;;;;;16.57;6.13;;;;;;;7.18;73.76;98960.31;1488543;87;22019;-81
2022/04/07 02:32:38;;;;;;;9.60;6.50;;;;;;;7.14;73.19;98961.14;1484647;87;23424;-81
2022/04/07 02:35:13;;;;;;;11.00;6.00;;;;;;;7.16;73.06;98959.65;1486173;87;21417;-81
2022/04/07 02:37:40;;;;;;;10.17;7.00;;;;;;;7.15;73.44;98960.14;1486667;87;21353;-81
2022/04/07 02:40:08;;;;;;;11.27;5.97;;;;;;;7.17;72.91;98956.87;1472580;87;21816;-79
2022/04/07 02:42:35;;;;;;;9.13;5.73;;;;;;;7.19;72.82;98962.80;1486032;87;22344;-80
2022/04/07 02:45:03;;;;;;;7.27;5.50;;;;;;;7.18;73.87;98961.14;1483035;87;21428;-80
2022/04/07 02:47:33;;;;;;;8.50;5.70;;;;;;;7.16;73.20;98957.87;1488754;87;21339;-80
2022/04/07 02:50:01;;;;;;;9.20;6.67;;;;;;;7.16;73.41;98960.50;1485076;87;21398;-80
2022/04/07 02:52:28;;;;;;;13.43;6.93;;;;;;;7.06;74.94;98965.06;1493110;87;22305;-80
2022/04/07 02:54:55;;;;;;;9.53;5.20;;;;;;;6.95;75.60;98963.55;1486423;87;21530;-81
2022/04/07 02:57:30;;;;;;;9.63;5.83;;;;;;;6.91;75.65;98961.41;1488287;87;22396;-80
2022/04/07 02:59:54;;;;;;;7.90;5.40;;;;;;;6.91;75.73;98961.41;1472704;89;22525;-80
2022/04/07 03:02:21;;;;;;;9.50;6.17;;;;;;;6.94;75.76;98966.35;1465932;89;21385;-80
2022/04/07 03:04:48;;;;;;;11.80;6.77;;;;;;;6.99;75.27;98960.09;1444280;89;22397;-82
2022/04/07 03:07:15;;;;;;;10.13;6.33;;;;;;;7.03;75.29;98960.12;1501745;87;21346;-81
2022/04/07 03:09:42;;;;;;;10.37;6.43;;;;;;;7.05;76.15;98939.75;1461868;89;21316;-81
2022/04/07 03:12:10;;;;;;;7.27;5.50;;;;;;;7.00;75.35;98941.54;1487587;86;21414;-81
2022/04/07 03:14:37;;;;;;;10.30;5.93;;;;;;;6.98;74.85;98946.63;1486252;87;21509;-81
2022/04/07 03:17:04;;;;;;;12.30;6.33;;;;;;;6.95;74.92;98943.82;1493092;87;21362;-81
2022/04/07 03:19:31;;;;;;;10.37;5.83;;;;;;;6.92;74.98;98934.94;1486970;87;21391;-82
2022/04/07 03:21:58;;;;;;;8.77;5.67;;;;;;;6.92;74.77;98932.80;1487369;86;22204;-81
2022/04/07 03:24:25;;;;;;;9.27;5.57;;;;;;;6.89;75.32;98927.87;1482622;88;22504;-81
2022/04/07 03:26:53;;;;;;;14.20;5.43;;;;;;;6.85;74.89;98925.20;1473601;88;21333;-81
2022/04/07 03:29:21;;;;;;;8.93;5.57;;;;;;;6.78;75.67;98928.48;1472692;88;21362;-81
2022/04/07 03:31:49;;;;;;;7.37;4.97;;;;;;;6.73;75.54;98918.95;1482836;87;21413;-81
2022/04/07 03:34:16;;;;;;;10.57;5.77;;;;;;;6.71;75.50;98921.41;1468921;87;22353;-82
2022/04/07 03:36:43;;;;;;;8.47;5.57;;;;;;;6.62;76.34;98915.30;1478521;88;21398;-82
2022/04/07 03:39:10;;;;;;;11.27;6.13;;;;;;;6.59;76.27;98919.56;1490279;87;21487;-82
2022/04/07 03:41:37;;;;;;;11.53;6.47;;;;;;;6.61;76.17;98917.58;1485309;87;22351;-82
2022/04/07 03:44:07;;;;;;;10.47;6.13;;;;;;;6.61;76.69;98914.13;1489065;87;22404;-82
2022/04/07 03:46:34;;;;;;;9.30;5.77;;;;;;;6.59;76.67;98910.37;1459071;89;23184;-83
2022/04/07 03:49:04;;;;;;;;;;;;;;;6.56;76.09;98905.43;1463938;89;23290;-82
2022/04/07 03:51:31;;;;;;;14.13;7.33;;;;;;;6.57;77.80;98906.25;1476720;88;20303;-82
2022/04/07 03:53:58;;;;;;;19.87;10.80;;;;;;;6.55;77.47;98912.96;1482928;87;21354;-82
2022/04/07 03:56:26;;;;;;;16.83;10.00;;;;;;;6.52;77.06;98911.97;1484083;87;22330;-82
2022/04/07 03:58:52;;;;;;;18.93;9.17;;;;;;;6.53;76.98;98896.52;1473071;87;21339;-82
2022/04/07 04:01:19;;;;;;;14.20;6.33;;;;;;;6.55;76.68;98893.25;1485057;87;21399;-82
2022/04/07 04:03:46;;;;;;;9.63;6.67;;;;;;;6.54;76.74;98893.75;1489288;87;21442;-81
2022/04/07 04:06:13;;;;;;;13.70;6.63;;;;;;;6.51;77.29;98890.13;1476450;87;21399;-81
2022/04/07 04:08:40;;;;;;;12.60;5.70;;;;;;;6.44;77.20;98889.09;1478909;88;22344;-81
2022/04/07 04:11:07;;;;;;;8.13;5.30;;;;;;;6.19;79.94;98875.05;1485954;87;21347;-81
2022/04/07 04:13:34;;;;;;;13.80;5.93;;;;;;;6.19;79.94;98879.00;1469913;87;21813;-81
2022/04/07 04:16:02;;;;;;;12.20;7.33;;;;;;;6.17;78.40;98875.69;1487688;87;21480;-82
2022/04/07 04:18:29;;;;;;;10.67;7.13;;;;;;;6.17;78.08;98871.75;1448139;88;21413;-81
2022/04/07 04:20:56;;;;;;;9.67;6.20;;;;;;;6.17;78.08;98871.75;1470694;87;21414;-81
2022/04/07 04:23:23;;;;;;;9.40;5.97;;;;;;;6.18;78.27;98873.88;1475271;86;22462;-81
2022/04/07 04:25:50;;;;;;;9.83;6.20;;;;;;;6.16;79.60;98879.31;1495147;88;22330;-81
2022/04/07 04:28:17;;;;;;;13.30;6.87;;;;;;;6.16;78.30;98891.59;1485295;87;22284;-81
2022/04/07 04:30:43;;;;;;;9.50;6.70;;;;;;;6.16;78.30;98891.59;1481114;87;21376;-81
2022/04/07 04:33:11;;;;;;;14.50;8.00;;;;;;;6.23;78.89;98881.63;1477050;88;21361;-81
2022/04/07 04:35:38;;;;;;;15.33;8.80;;;;;;;6.30;78.28;98886.60;1477167;87;21442;-81
2022/04/07 04:38:05;;;;;;;13.07;7.87;;;;;;;6.35;79.20;98894.48;1481730;88;21435;-81
2022/04/07 04:40:32;;;;;;;9.30;6.57;;;;;;;6.31;79.69;98892.17;1482508;87;21317;-81
2022/04/07 04:43:00;;;;;;;11.83;6.67;;;;;;;6.31;79.69;98892.17;1483284;87;21554;-81
2022/04/07 04:45:27;;;;;;;17.43;7.00;;;;;;;6.38;79.23;98890.23;1469812;87;21429;-81
2022/04/07 04:47:54;;;;;;;10.50;6.40;;;;;;;6.37;78.89;98880.22;1479996;87;21413;-81
2022/04/07 04:50:21;;;;;;;13.17;5.50;;;;;;;6.53;78.76;98888.63;1483221;87;22346;-81
2022/04/07 04:52:48;;;;;;;11.27;7.00;;;;;;;6.53;78.76;98888.63;1485275;87;21443;-81
2022/04/07 04:55:15;;;;;;;18.47;6.07;;;;;;;6.50;78.65;98891.12;1477354;87;22471;-81
2022/04/07 04:57:43;;;;;;;20.83;6.17;;;;;;;6.45;79.11;98889.45;1443150;89;22366;-81
2022/04/07 05:00:11;;;;;;;13.50;6.90;;;;;;;6.42;78.46;98886.32;1463438;89;21415;-82
2022/04/07 05:02:40;;;;;;;13.17;6.63;;;;;;;6.55;78.14;98895.87;1438193;91;21335;-81
2022/04/07 05:05:08;;;;;;;18.27;7.30;;;;;;;6.63;78.42;98885.89;1456796;89;22403;-82
2022/04/07 05:07:35;;;;;;;44.63;8.00;;;;;;;6.71;78.00;98901.70;1454038;89;21353;-82
2022/04/07 05:10:05;;;;;;;10.70;7.13;;;;;;;6.78;77.76;98896.92;1456781;89;21323;-81
2022/04/07 05:12:32;;;;;;;10.63;6.80;;;;;;;6.87;77.50;98911.41;1453305;89;21515;-80
2022/04/07 05:15:00;;;;;;;11.23;7.00;;;;;;;6.89;77.34;98909.45;1464088;89;21360;-81
2022/04/07 05:17:27;;;;;;;14.27;7.80;;;;;;;6.88;77.70;98914.40;1449390;89;21375;-80
2022/04/07 05:19:53;;;;;;;12.97;7.70;;;;;;;6.96;77.85;98919.19;1452614;89;21390;-80
2022/04/07 05:22:20;;;;;;;12.77;7.17;;;;;;;6.97;77.72;98914.74;1480768;88;21340;-80
2022/04/07 05:24:48;;;;;;;11.53;7.53;;;;;;;7.02;77.60;98921.66;1474463;86;22478;-80
2022/04/07 05:27:17;;;;;;;18.23;8.87;;;;;;;7.12;77.59;98923.64;1484354;87;21340;-80
2022/04/07 05:29:44;;;;;;;13.97;8.33;;;;;;;7.13;77.60;98927.91;1488892;88;21407;-80
2022/04/07 05:32:11;;;;;;;16.77;10.17;;;;;;;7.21;77.12;98928.41;1480377;88;21709;-82
2022/04/07 05:34:39;;;;;;;12.13;8.37;;;;;;;7.29;76.89;98932.88;1476166;88;21391;-82
2022/04/07 05:37:06;;;;;;;25.30;10.17;;;;;;;7.34;77.28;98933.22;1481425;87;21340;-81
2022/04/07 05:39:33;;;;;;;10.23;6.53;;;;;;;7.36;76.84;98939.13;1480900;88;22168;-84
2022/04/07 05:42:00;;;;;;;19.77;8.97;;;;;;;7.42;76.42;98939.31;1479182;86;21819;-82
2022/04/07 05:44:27;;;;;;;13.60;8.13;;;;;;;7.52;76.29;98939.14;1482302;87;22227;-82
2022/04/07 05:46:54;;;;;;;14.10;8.13;;;;;;;7.63;76.39;98947.21;1483096;87;21421;-83
2022/04/07 05:49:21;;;;;;;14.60;8.80;;;;;;;7.71;76.36;98950.31;1483664;88;21376;-82
2022/04/07 05:51:50;;;;;;;16.07;7.90;;;;;;;7.78;76.15;98945.55;1489547;88;21391;-83
2022/04/07 05:54:17;;;;;;;10.47;7.77;;;;;;;7.87;75.91;98946.36;1456432;89;21621;-84
2022/04/07 05:56:44;;;;;;;10.37;7.40;;;;;;;7.94;76.63;98942.56;1458377;88;21378;-84
2022/04/07 05:59:17;;;;;;;10.60;6.70;;;;;;;8.00;75.74;98944.05;1431615;89;21423;-83
2022/04/07 06:01:46;;;;;;;10.97;6.90;;;;;;;8.03;76.04;98941.08;1452454;89;21609;-82
2022/04/07 06:04:12;;;;;;;10.80;5.80;;;;;;;7.99;75.16;98956.87;1433417;91;21443;-84
2022/04/07 06:06:40;;;;;;;10.53;6.60;;;;;;;7.93;75.15;98950.97;1413525;92;21536;-83
2022/04/07 06:09:07;;;;;;;12.70;6.67;;;;;;;7.95;74.99;98951.63;1436500;91;21451;-82
2022/04/07 06:11:34;;;;;;;18.23;6.83;;;;;;;7.95;75.00;98947.68;1435396;91;21678;-81
2022/04/07 06:14:02;;;;;;;19.83;9.00;;;;;;;7.97;75.00;98940.44;1435889;89;22420;-82
2022/04/07 06:16:29;;;;;;;17.03;6.73;;;;;;;8.07;75.14;98942.88;1435991;89;22105;-82
2022/04/07 06:18:56;;;;;;;20.20;6.90;;;;;;;8.14;75.36;98936.78;1424759;91;21502;-83
2022/04/07 06:21:24;;;;;;;13.03;6.07;;;;;;;8.20;74.90;98938.39;1416784;92;21504;-83
2022/04/07 06:24:03;;;;;;;24.03;9.03;;;;;;;8.28;74.78;98933.11;1416330;90;21481;-82
2022/04/07 06:26:30;;;;;;;13.83;6.40;;;;;;;8.40;74.71;98929.64;1417047;92;22405;-82
2022/04/07 06:28:58;;;;;;;15.73;7.77;;;;;;;8.53;74.49;98932.06;1418383;92;21467;-82
2022/04/07 06:31:25;;;;;;;26.23;9.87;;;;;;;8.61;74.46;98927.27;1417286;92;22429;-81
2022/04/07 06:33:52;;;;;;;16.80;9.77;;;;;;;8.67;74.43;98921.30;1410101;92;21445;-82
2022/04/07 06:36:19;;;;;;;30.97;12.50;;;;;;;8.75;74.20;98917.81;1416936;92;22414;-82
2022/04/07 06:38:46;;;;;;;31.77;15.43;;;;;;;8.84;74.01;98915.45;1416245;91;21947;-82
2022/04/07 06:41:13;;;;;;;35.60;18.00;;;;;;;8.93;73.93;98913.08;1415744;91;21471;-82
2022/04/07 06:43:40;;;;;;;34.93;21.23;;;;;;;9.03;73.68;98908.42;1417255;91;21446;-82
2022/04/07 06:46:07;;;;;;;52.17;23.27;;;;;;;9.13;73.43;98906.05;1416264;91;22330;-82
2022/04/07 06:48:34;;;;;;;46.90;24.00;;;;;;;9.18;73.50;98907.16;1416848;91;21490;-82
2022/04/07 06:51:02;;;;;;;44.03;25.53;;;;;;;9.26;73.28;98912.86;1412871;91;22339;-82
2022/04/07 06:53:29;;;;;;;44.50;22.77;;;;;;;9.33;73.46;98901.12;1433716;89;21487;-82
2022/04/07 06:55:56;;;;;;;33.97;18.40;;;;;;;9.38;73.09;98904.88;1463765;88;21509;-83
2022/04/07 06:58:23;;;;;;;29.50;13.53;;;;;;;9.47;72.98;98899.84;1424849;90;21540;-81
2022/04/07 07:00:50;;;;;;;16.93;10.97;;;;;;;9.58;72.68;98904.36;1439267;90;21407;-82
2022/04/07 07:03:17;;;;;;;20.33;10.37;;;;;;;9.66;72.22;98902.97;1436751;90;21554;-82
2022/04/07 07:05:44;;;;;;;17.10;9.20;;;;;;;9.79;72.11;98897.91;1437603;91;21489;-83
2022/04/07 07:08:22;;;;;;;12.60;8.23;;;;;;;9.90;71.64;98892.19;1436429;91;21486;-82
2022/04/07 07:10:52;;;;;;;17.03;8.93;;;;;;;10.05;71.42;98894.03;1433480;91;21363;-82
2022/04/07 07:13:23;;;;;;;14.73;8.30;;;;;;;10.19;71.00;98887.92;1437709;91;21458;-83
2022/04/07 07:15:50;;;;;;;14.53;8.37;;;;;;;10.31;70.77;98893.09;1434219;91;21444;-82
2022/04/07 07:18:26;;;;;;;19.77;8.57;;;;;;;10.42;70.31;98902.39;1435283;91;21414;-82
2022/04/07 07:20:53;;;;;;;14.20;7.60;;;;;;;10.50;70.01;98897.02;1437302;90;21444;-82
2022/04/07 07:23:20;;;;;;;14.57;8.37;;;;;;;10.61;69.71;98899.67;1436787;91;22361;-82
2022/04/07 07:25:47;;;;;;;15.97;7.37;;;;;;;10.72;69.51;98903.16;1443284;89;21547;-83
2022/04/07 07:28:14;;;;;;;23.00;8.57;;;;;;;10.82;69.20;98903.70;1439282;89;21355;-82
2022/04/07 07:30:41;;;;;;;21.97;12.00;;;;;;;10.89;68.84;98898.98;1442657;90;21547;-81
2022/04/07 07:33:08;;;;;;;30.97;14.47;;;;;;;10.93;68.60;98895.75;1442274;90;21605;-81
2022/04/07 07:35:35;;;;;;;30.17;15.63;;;;;;;11.01;68.36;98894.83;1442543;90;21428;-83
2022/04/07 07:38:03;;;;;;;30.37;16.17;;;;;;;11.11;68.29;98901.97;1441407;89;22344;-81
2022/04/07 07:40:32;;;;;;;34.37;17.50;;;;;;;11.19;68.15;98897.88;1440881;90;21392;-83
2022/04/07 07:43:01;;;;;;;50.50;21.60;;;;;;;11.29;67.92;98902.34;1441921;90;21516;-83
2022/04/07 07:45:34;;;;;;;51.33;27.17;;;;;;;11.42;67.78;98894.20;1445827;90;21406;-82
2022/04/07 07:48:01;;;;;;;73.60;36.77;;;;;;;11.52;67.32;98901.33;1430168;90;22368;-83
2022/04/07 07:50:27;;;;;;;99.50;51.00;;;;;;;11.60;67.09;98898.55;1441230;90;21429;-83
2022/04/07 07:52:54;;;;;;;118.40;61.07;;;;;;;11.69;66.70;98896.07;1441646;90;21466;-83
2022/04/07 07:55:21;;;;;;;93.27;48.37;;;;;;;11.77;66.45;98895.60;1420287;90;21495;-83
2022/04/07 07:57:48;;;;;;;66.53;28.67;;;;;;;11.81;66.20;98891.57;1443387;90;21540;-83
2022/04/07 08:00:17;;;;;;;62.60;31.00;;;;;;;11.90;66.08;98883.81;1443896;90;21377;-83
2022/04/07 08:02:44;;;;;;;69.27;31.67;;;;;;;11.97;65.91;98884.69;1448117;90;21435;-83
2022/04/07 08:05:13;;;;;;;47.10;25.57;;;;;;;12.07;65.82;98885.14;1439501;90;21318;-83
2022/04/07 08:07:42;;;;;;;41.63;21.63;;;;;;;12.14;65.56;98886.02;1446141;90;21488;-83
2022/04/07 08:10:10;;;;;;;45.27;22.80;;;;;;;12.25;65.34;98886.47;1436321;90;21326;-83
2022/04/07 08:12:38;;;;;;;58.50;29.53;;;;;;;12.32;65.19;98886.83;1444267;90;22352;-83
2022/04/07 08:15:06;;;;;;;42.20;22.80;;;;;;;12.48;65.04;98898.93;1443110;89;21356;-83
2022/04/07 08:17:34;;;;;;;35.57;16.27;;;;;;;12.59;64.87;98889.08;1440994;90;22338;-83
2022/04/07 08:20:07;;;;;;;38.10;13.80;;;;;;;12.65;64.42;98881.65;1445082;89;21413;-83
2022/04/07 08:22:34;;;;;;;29.50;14.73;;;;;;;12.82;64.33;98882.63;1450833;90;21378;-83
2022/04/07 08:25:03;;;;;;;22.20;11.17;;;;;;;12.93;63.73;98886.03;1443549;89;22411;-83
2022/04/07 08:27:30;;;;;;;23.33;10.53;;;;;;;12.98;63.14;98883.61;1441301;89;21355;-81
2022/04/07 08:29:57;;;;;;;31.27;10.77;;;;;;;13.00;62.10;98885.53;1443231;90;21399;-81
2022/04/07 08:32:24;;;;;;;15.47;7.93;;;;;;;13.06;62.24;98888.73;1439512;90;22384;-81
2022/04/07 08:34:53;;;;;;;26.93;10.40;;;;;;;13.12;62.24;98884.46;1443649;90;21363;-81
2022/04/07 08:37:21;;;;;;;22.50;9.30;;;;;;;13.25;62.33;98894.28;1438754;90;22434;-81
2022/04/07 08:39:49;;;;;;;24.47;10.77;;;;;;;13.36;62.07;98893.71;1438241;90;21428;-82
2022/04/07 08:42:25;;;;;;;27.87;8.00;;;;;;;13.48;62.02;98894.73;1439198;90;21437;-82
2022/04/07 08:44:52;;;;;;;20.63;7.97;;;;;;;13.54;61.04;98891.26;1442623;90;21512;-85
2022/04/07 08:47:20;;;;;;;27.33;8.20;;;;;;;13.61;60.27;98882.46;1446034;89;22279;-82
2022/04/07 08:49:51;;;;;;;20.27;6.70;;;;;;;13.61;59.62;98887.30;1443176;89;21355;-83
2022/04/07 08:52:19;;;;;;;24.07;7.80;;;;;;;13.69;59.72;98886.25;1450115;90;21428;-83
2022/04/07 08:54:47;;;;;;;22.33;6.67;;;;;;;13.75;59.11;98884.09;1441998;89;22272;-83
2022/04/07 08:57:16;;;;;;;32.60;6.67;;;;;;;13.76;58.79;98880.44;1447213;89;21983;-83
2022/04/07 08:59:43;;;;;;;25.10;6.50;;;;;;;13.91;59.26;98878.36;1438935;90;21303;-84
2022/04/07 09:02:12;;;;;;;31.70;7.93;;;;;;;13.96;58.05;98875.91;1447200;90;21465;-82
2022/04/07 09:04:40;;;;;;;22.87;7.77;;;;;;;13.98;57.45;98869.03;1424215;90;21429;-83
2022/04/07 09:07:10;;;;;;;17.90;6.23;;;;;;;14.01;57.42;98868.61;1444467;90;21384;-82
2022/04/07 09:09:36;;;;;;;25.63;5.67;;;;;;;14.02;57.00;98872.11;1415314;90;21451;-82
2022/04/07 09:12:05;;;;;;;23.23;5.47;;;;;;;13.92;56.30;98872.52;1442585;90;21399;-82
2022/04/07 09:14:34;;;;;;;19.17;6.27;;;;;;;13.89;56.47;98883.58;1441883;90;22264;-84
2022/04/07 09:17:03;;;;;;;16.93;5.63;;;;;;;13.84;56.52;98878.05;1416991;90;22360;-83
2022/04/07 09:19:31;;;;;;;25.33;6.37;;;;;;;13.87;56.83;98883.80;1443389;90;21392;-83
2022/04/07 09:22:08;;;;;;;22.27;6.20;;;;;;;13.88;57.14;98878.77;1440852;89;21426;-83
2022/04/07 09:24:38;;;;;;;28.00;5.57;;;;;;;13.92;57.15;98879.17;1446396;89;21377;-83
2022/04/07 09:27:08;;;;;;;24.60;7.77;;;;;;;13.93;57.19;98874.98;1435815;90;22309;-83
2022/04/07 09:29:45;;;;;;;19.32;6.53;;;;;;;13.96;57.31;98877.23;1412257;91;21377;-83
2022/04/07 09:32:26;;;;;;;21.40;6.47;;;;;;;13.99;57.46;98872.02;1438528;91;21422;-83
2022/04/07 09:35:00;;;;;;;22.60;7.23;;;;;;;14.04;57.25;98876.20;1415226;91;21437;-83
2022/04/07 09:37:29;;;;;;;23.33;6.77;;;;;;;14.03;57.09;98876.40;1437973;91;21459;-84
2022/04/07 09:40:14;;;;;;;18.40;6.17;;;;;;;14.06;57.44;98866.67;1433813;91;21422;-84
2022/04/07 09:42:42;;;;;;;21.43;5.90;;;;;;;14.04;57.41;98867.38;1434246;90;22648;-84
2022/04/07 09:45:13;;;;;;;24.07;7.23;;;;;;;13.98;57.74;98860.56;1433780;91;21413;-84
2022/04/07 09:47:44;;;;;;;23.77;7.73;;;;;;;14.04;58.12;98863.39;1435291;91;21518;-83
2022/04/07 09:50:33;;;;;;;28.73;7.37;;;;;;;14.03;58.12;98859.11;1439718;91;21466;-84
2022/04/07 09:53:03;;;;;;;28.63;6.80;;;;;;;13.98;58.27;98857.91;1439267;91;21451;-83
2022/04/07 09:55:40;;;;;;;23.40;7.53;;;;;;;13.93;58.72;98863.54;1434031;91;21532;-84
2022/04/07 09:58:09;;;;;;;30.20;5.57;;;;;;;13.90;58.80;98858.64;1434742;90;21274;-85
2022/04/07 10:00:36;;;;;;;21.03;4.87;;;;;;;13.82;59.58;98849.02;1437685;91;21473;-84
2022/04/07 10:03:04;;;;;;;11.10;3.70;;;;;;;13.73;60.53;98851.59;1440903;91;21513;-84
2022/04/07 10:05:33;;;;;;;8.00;3.43;;;;;;;13.62;61.13;98861.52;1439916;90;21436;-85
2022/04/07 10:08:03;;;;;;;10.13;3.30;;;;;;;13.51;61.67;98853.13;1424377;91;21482;-84
2022/04/07 10:10:30;;;;;;;9.63;3.80;;;;;;;13.37;63.01;98854.15;1439642;90;21370;-84
2022/04/07 10:12:59;;;;;;;14.73;3.43;;;;;;;13.25;63.71;98849.11;1436491;91;21400;-83
2022/04/07 10:15:27;;;;;;;10.83;4.23;;;;;;;13.20;63.57;98848.89;1436429;91;21550;-83
2022/04/07 10:17:57;;;;;;;19.30;5.40;;;;;;;13.03;65.19;98849.79;1439124;91;21414;-83
2022/04/07 10:20:33;;;;;;;12.10;3.57;;;;;;;13.00;65.35;98848.34;1440911;91;22421;-84
2022/04/07 10:23:39;;;;;;;7.57;3.30;;;;;;;12.93;66.09;98845.39;1442074;91;22250;-84
2022/04/07 10:26:10;;;;;;;9.97;3.60;;;;;;;12.88;66.78;98848.64;1457397;89;21494;-84
2022/04/07 10:28:37;;;;;;;17.13;3.63;;;;;;;12.82;66.56;98842.81;1442174;90;22330;-84
2022/04/07 10:31:14;;;;;;;11.03;4.20;;;;;;;12.81;66.83;98838.53;1434475;90;21317;-83
2022/04/07 10:33:47;;;;;;;14.50;4.00;;;;;;;12.79;66.57;98832.59;1445085;90;21347;-83
2022/04/07 10:36:20;;;;;;;9.70;4.20;;;;;;;12.77;67.10;98830.13;1434051;90;21480;-83
2022/04/07 10:38:56;;;;;;;13.13;3.53;;;;;;;12.78;66.90;98820.34;1420818;90;21347;-84
2022/04/07 10:41:42;;;;;;;10.07;3.40;;;;;;;12.77;67.32;98825.33;1444098;90;23451;-84
2022/04/07 10:44:16;;;;;;;20.88;4.08;;;;;;;12.74;67.42;98820.42;1401614;92;21421;-83
2022/04/07 10:46:44;;;;;;;10.70;4.47;;;;;;;12.79;67.12;98817.99;1402696;93;21532;-83
2022/04/07 10:49:14;;;;;;;12.63;5.33;;;;;;;12.78;67.53;98810.54;1406146;93;21541;-83
2022/04/07 10:51:47;;;;;;;10.32;4.53;;;;;;;12.83;67.14;98809.92;1385211;93;21549;-85
2022/04/07 10:54:15;;;;;;;9.57;5.50;;;;;;;12.86;67.35;98802.91;1409465;93;21480;-84
2022/04/07 10:56:53;;;;;;;17.93;5.50;;;;;;;12.93;66.98;98802.39;1403292;93;21311;-84
2022/04/07 10:59:34;;;;;;;10.67;4.97;;;;;;;12.93;67.14;98799.73;1404393;93;22309;-84
2022/04/07 11:02:06;;;;;;;9.93;3.40;;;;;;;12.98;66.99;98804.45;1406807;93;21471;-84
2022/04/07 11:05:01;;;;;;;9.53;4.20;;;;;;;13.00;67.27;98799.22;1407404;93;21346;-84
2022/04/07 11:07:39;;;;;;;12.57;4.40;;;;;;;13.04;67.28;98800.47;1401374;93;21362;-84
2022/04/07 11:10:11;;;;;;;15.37;4.20;;;;;;;13.12;67.23;98801.28;1407763;93;22455;-84
2022/04/07 11:12:46;;;;;;;11.33;5.27;;;;;;;13.17;67.07;98798.31;1403483;93;21487;-84
2022/04/07 11:15:30;;;;;;;9.07;4.40;;;;;;;13.19;67.26;98795.47;1415963;90;22397;-83
2022/04/07 11:18:24;;;;;;;11.47;4.57;;;;;;;13.26;67.41;98798.96;1434913;90;22403;-84
2022/04/07 11:21:08;;;;;;;16.77;4.87;;;;;;;13.37;67.79;98797.02;1435470;90;21392;-84
2022/04/07 11:23:45;;;;;;;12.47;3.97;;;;;;;13.42;67.90;98795.90;1444218;90;21516;-84
2022/04/07 11:26:23;;;;;;;7.83;3.33;;;;;;;13.53;67.45;98797.94;1441301;90;21509;-84
2022/04/07 11:29:11;;;;;;;10.03;3.57;;;;;;;13.59;67.02;98798.14;1439079;90;23361;-84
2022/04/07 11:31:48;;;;;;;11.37;3.70;;;;;;;13.60;66.59;98790.45;1437542;90;21354;-83
2022/04/07 11:34:40;;;;;;;8.63;3.40;;;;;;;13.54;66.32;98791.58;1442880;90;21502;-84
2022/04/07 11:37:09;;;;;;;9.87;4.27;;;;;;;13.52;66.51;98791.00;1447527;90;21368;-83
2022/04/07 11:39:45;;;;;;;11.40;4.87;;;;;;;13.56;67.24;98783.94;1438591;90;21346;-85
2022/04/07 11:42:21;;;;;;;10.30;4.43;;;;;;;13.50;67.57;98782.41;1442988;90;21539;-83